Terminal Aerodrome Forecast
Issued by NWS Portland, OR

Home | Current Version | Previous Version | Text Only | Print | Product List | Glossary On
Versions: 1 2 3 4 5 6 7 8 9 10 11 12 13 14 15 16 17 18 19 20 21 22 23 24 25 26 27 28 29 30 31
000
FTUS46 KPQR 301720
TAFTTD
TAF
KTTD 301720Z 3018/3118 21004KT P6SM -SHRA SCT018 BKN028 OVC045
     FM302200 25006KT P6SM -SHRA BKN035 OVC050
     FM310400 25004KT P6SM SCT035 BKN050
     FM311200 00000KT P6SM BKN028 BKN050=

USA.gov is the U.S. government's official web portal to all federal, state and local government web resources and services.